Time;durP1;ratioP1;P1;durP2;ratioP2;P2;SDS_P1;SDS_P2;PMS_P1;PMS_P2;Temp;Humidity;BMP_temperature;BMP_pressure;BME280_temperature;BME280_humidity;BME280_pressure;Samples;Min_cycle;Max_cycle;Signal;HPM_P1;HPM_P2
2024/02/05 00:00:20;;;;;;;5.90;3.80;;;;;;;5.28;100.00;98441.10;109404;1254;60319;-77
2024/02/05 00:03:07;;;;;;;5.70;4.20;;;;;;;5.29;100.00;98437.02;109370;1254;65728;-77
2024/02/05 00:05:33;;;;;;;4.80;3.80;;;;;;;5.30;100.00;98435.38;109129;1254;58148;-77
2024/02/05 00:08:00;;;;;;;6.30;5.20;;;;;;;5.32;100.00;98438.27;109404;1258;58377;-78
2024/02/05 00:10:27;;;;;;;7.00;4.50;;;;;;;5.31;100.00;98436.02;109411;1254;66473;-78
2024/02/05 00:12:53;;;;;;;2.80;2.50;;;;;;;5.28;100.00;98435.44;109390;1253;61083;-77
2024/02/05 00:15:20;;;;;;;5.00;2.70;;;;;;;5.26;100.00;98436.27;109382;1254;64041;-75
2024/02/05 00:17:46;;;;;;;2.70;2.10;;;;;;;5.24;100.00;98437.08;109362;1254;58150;-77
2024/02/05 00:20:13;;;;;;;1.60;1.20;;;;;;;5.22;100.00;98435.98;109386;1254;58291;-78
2024/02/05 00:22:42;;;;;;;2.10;1.30;;;;;;;5.20;100.00;98436.08;109353;1254;65181;-76
2024/02/05 00:25:10;;;;;;;1.70;0.90;;;;;;;5.18;100.00;98436.35;109150;1254;60326;-77
2024/02/05 00:27:37;;;;;;;2.10;1.00;;;;;;;5.17;100.00;98432.39;109386;1254;64032;-76
2024/02/05 00:30:04;;;;;;;1.90;1.40;;;;;;;5.14;100.00;98433.23;109383;1253;58261;-76
2024/02/05 00:32:31;;;;;;;2.30;1.40;;;;;;;5.12;100.00;98436.16;109385;1254;58339;-77
2024/02/05 00:34:58;;;;;;;2.00;1.50;;;;;;;5.10;100.00;98433.25;109416;1254;65340;-77
2024/02/05 00:37:26;;;;;;;1.10;1.00;;;;;;;5.10;100.00;98432.77;109409;1254;60826;-76
2024/02/05 00:39:53;;;;;;;2.70;0.90;;;;;;;5.09;100.00;98430.52;109372;1254;64954;-77
2024/02/05 00:42:19;;;;;;;1.00;0.60;;;;;;;5.08;100.00;98429.67;109097;1253;58237;-77
2024/02/05 00:44:46;;;;;;;1.50;1.30;;;;;;;5.08;100.00;98423.02;109000;1254;58305;-77
2024/02/05 00:47:13;;;;;;;2.50;2.30;;;;;;;5.06;100.00;98421.86;109371;1254;65215;-77
2024/02/05 00:49:39;;;;;;;3.70;2.50;;;;;;;5.06;100.00;98421.50;109204;1256;60030;-76
2024/02/05 00:52:06;;;;;;;3.00;2.70;;;;;;;5.07;100.00;98421.64;109183;1255;65137;-77
2024/02/05 00:54:32;;;;;;;3.00;1.60;;;;;;;5.07;100.00;98423.02;109169;1257;58194;-77
2024/02/05 00:56:59;;;;;;;1.70;1.50;;;;;;;5.06;100.00;98421.12;109216;1256;58466;-77
2024/02/05 00:59:26;;;;;;;2.00;1.50;;;;;;;5.07;100.00;98410.55;109205;1255;66177;-77
2024/02/05 01:01:52;;;;;;;2.50;1.20;;;;;;;5.06;100.00;98405.83;109105;1257;61101;-77
2024/02/05 01:04:19;;;;;;;2.80;1.30;;;;;;;5.08;100.00;98409.27;109194;1255;65311;-76
2024/02/05 01:06:45;;;;;;;1.50;1.30;;;;;;;5.09;100.00;98416.42;109206;1256;58173;-75
2024/02/05 01:09:12;;;;;;;2.30;1.80;;;;;;;5.10;100.00;98411.27;108996;1255;58265;-77
2024/02/05 01:11:39;;;;;;;3.10;1.80;;;;;;;5.11;100.00;98408.05;109214;1255;65248;-76
2024/02/05 01:14:06;;;;;;;3.10;1.80;;;;;;;5.11;100.00;98406.48;109177;1257;61461;-77
2024/02/05 01:16:32;;;;;;;1.80;1.50;;;;;;;5.10;100.00;98405.61;109216;1256;65231;-78
2024/02/05 01:18:59;;;;;;;2.60;1.90;;;;;;;5.10;100.00;98401.39;109204;1257;58271;-77
2024/02/05 01:21:25;;;;;;;2.90;1.90;;;;;;;5.08;100.00;98400.79;109315;1254;58496;-76
2024/02/05 01:23:52;;;;;;;2.10;1.20;;;;;;;5.08;100.00;98394.14;109373;1254;65633;-76
2024/02/05 01:26:20;;;;;;;0.70;0.60;;;;;;;5.06;100.00;98393.89;109358;1254;61050;-75
2024/02/05 01:28:47;;;;;;;0.90;0.40;;;;;;;5.03;100.00;98385.02;109357;1254;64317;-77
2024/02/05 01:31:14;;;;;;;0.50;0.50;;;;;;;5.01;100.00;98374.58;109371;1254;58246;-77
2024/02/05 01:33:41;;;;;;;0.70;0.40;;;;;;;4.99;100.00;98369.22;109237;1254;58436;-76
2024/02/05 01:36:08;;;;;;;0.40;0.40;;;;;;;4.98;100.00;98358.59;109357;1254;66242;-77
2024/02/05 01:38:34;;;;;;;0.70;0.50;;;;;;;4.95;100.00;98347.27;109349;1254;61114;-77
2024/02/05 01:41:01;;;;;;;0.40;0.40;;;;;;;4.94;100.00;98348.59;109343;1254;65115;-78
2024/02/05 01:43:28;;;;;;;0.40;0.30;;;;;;;4.92;100.00;98339.70;109345;1253;58542;-78
2024/02/05 01:45:55;;;;;;;0.90;0.50;;;;;;;4.92;100.00;98340.42;109144;1254;58540;-77
2024/02/05 01:48:24;;;;;;;1.00;0.70;;;;;;;4.91;100.00;98338.16;109371;1254;66260;-77
2024/02/05 01:50:51;;;;;;;2.50;1.70;;;;;;;4.91;100.00;98329.58;109360;1254;61100;-77
2024/02/05 01:53:19;;;;;;;4.90;3.40;;;;;;;4.89;100.00;98324.75;109346;1254;64039;-77
2024/02/05 01:55:48;;;;;;;4.50;4.10;;;;;;;4.88;100.00;98316.38;109043;1254;58296;-77
2024/02/05 01:58:15;;;;;;;3.70;3.40;;;;;;;4.88;100.00;98310.36;109243;1254;58307;-76
2024/02/05 02:00:41;;;;;;;4.90;4.00;;;;;;;4.89;100.00;98306.23;109379;1254;65195;-76
2024/02/05 02:03:09;;;;;;;4.10;3.70;;;;;;;4.90;100.00;98300.02;109347;1254;61069;-75
2024/02/05 02:05:37;;;;;;;3.00;2.30;;;;;;;4.91;100.00;98291.19;109379;1254;63856;-76
2024/02/05 02:08:06;;;;;;;2.60;2.10;;;;;;;4.93;100.00;98286.84;109344;1254;58161;-77
2024/02/05 02:10:33;;;;;;;1.40;1.30;;;;;;;4.95;100.00;98284.11;109366;1254;58217;-77
2024/02/05 02:13:00;;;;;;;2.00;1.60;;;;;;;4.97;100.00;98278.36;109344;1254;66341;-77
2024/02/05 02:15:26;;;;;;;1.60;1.30;;;;;;;4.98;100.00;98270.90;109220;1253;59882;-77
2024/02/05 02:17:58;;;;;;;2.00;1.40;;;;;;;5.01;100.00;98266.85;109313;1254;65136;-77
2024/02/05 02:20:26;;;;;;;1.50;1.40;;;;;;;5.03;100.00;98256.17;109314;1254;58275;-77
2024/02/05 02:23:05;;;;;;;1.70;1.20;;;;;;;5.06;100.00;98249.17;109335;1254;58224;-77
2024/02/05 02:25:32;;;;;;;1.60;1.20;;;;;;;5.09;100.00;98242.63;109350;1254;65142;-77
2024/02/05 02:27:59;;;;;;;1.30;1.20;;;;;;;5.10;100.00;98240.09;109366;1254;61078;-77
2024/02/05 02:30:28;;;;;;;1.60;1.10;;;;;;;5.12;100.00;98232.08;109304;1253;63718;-77
2024/02/05 02:33:15;;;;;;;1.80;1.00;;;;;;;5.14;100.00;98226.19;109352;1254;58210;-78
2024/02/05 02:36:08;;;;;;;1.30;1.10;;;;;;;5.15;100.00;98217.33;109356;1254;58235;-77
2024/02/05 02:39:03;;;;;;;3.00;1.30;;;;;;;5.16;100.00;98213.03;109320;1254;66289;-77
2024/02/05 02:41:35;;;;;;;1.50;1.40;;;;;;;5.16;100.00;98207.18;109316;1254;61072;-77
2024/02/05 02:44:03;;;;;;;1.90;1.10;;;;;;;5.17;100.00;98197.27;109304;1254;64008;-77
2024/02/05 02:46:30;;;;;;;1.10;1.00;;;;;;;5.18;100.00;98189.30;109305;1254;58120;-77
2024/02/05 02:48:57;;;;;;;1.10;0.90;;;;;;;5.18;100.00;98180.48;109338;1254;58272;-77
2024/02/05 02:51:24;;;;;;;1.20;0.90;;;;;;;5.18;100.00;98169.05;109331;1254;66156;-77
2024/02/05 02:53:51;;;;;;;1.20;1.10;;;;;;;5.18;100.00;98167.98;109307;1254;61069;-76
2024/02/05 02:56:18;;;;;;;1.10;1.00;;;;;;;5.19;100.00;98165.33;109305;1254;65107;-77
2024/02/05 02:58:45;;;;;;;1.20;0.90;;;;;;;5.19;100.00;98167.74;109336;1254;58182;-78
2024/02/05 03:01:11;;;;;;;1.30;1.20;;;;;;;5.21;100.00;98162.73;109306;1254;58224;-77
2024/02/05 03:03:38;;;;;;;2.10;1.20;;;;;;;5.22;100.00;98156.47;109232;1254;67273;-77
2024/02/05 03:06:05;;;;;;;1.70;1.40;;;;;;;5.23;100.00;98152.73;109348;1254;61026;-77
2024/02/05 03:08:31;;;;;;;2.70;2.00;;;;;;;5.25;100.00;98148.90;109347;1253;65188;-78
2024/02/05 03:10:58;;;;;;;2.40;1.60;;;;;;;5.27;100.00;98149.12;109109;1254;58466;-78
2024/02/05 03:13:25;;;;;;;1.70;1.60;;;;;;;5.29;100.00;98151.31;109365;1253;58094;-77
2024/02/05 03:15:51;;;;;;;2.10;1.90;;;;;;;5.31;100.00;98142.44;109359;1253;66233;-79
2024/02/05 03:18:18;;;;;;;1.90;1.70;;;;;;;5.32;100.00;98136.40;109309;1253;61195;-77
2024/02/05 03:20:45;;;;;;;2.20;1.50;;;;;;;5.34;100.00;98133.27;109092;1254;64081;-77
2024/02/05 03:23:11;;;;;;;4.00;1.90;;;;;;;5.35;100.00;98122.98;109308;1254;58287;-78
2024/02/05 03:25:39;;;;;;;1.80;1.70;;;;;;;5.36;100.00;98119.56;109190;1254;58238;-77
2024/02/05 03:28:07;;;;;;;1.90;1.80;;;;;;;5.38;100.00;98118.58;109312;1253;66482;-78
2024/02/05 03:30:34;;;;;;;1.50;1.40;;;;;;;5.39;100.00;98110.92;109266;1254;59769;-78
2024/02/05 03:33:02;;;;;;;3.10;1.80;;;;;;;5.41;100.00;98104.81;109320;1254;64825;-77
2024/02/05 03:35:29;;;;;;;1.50;1.40;;;;;;;5.46;100.00;98101.14;109277;1253;58303;-78
2024/02/05 03:37:56;;;;;;;1.40;1.30;;;;;;;5.49;100.00;98096.18;109365;1253;58153;-78
2024/02/05 03:40:23;;;;;;;1.60;1.50;;;;;;;5.54;100.00;98099.84;109375;1254;65340;-76
2024/02/05 03:42:51;;;;;;;1.30;1.20;;;;;;;5.58;100.00;98103.64;109385;1253;61623;-77
2024/02/05 03:45:18;;;;;;;1.00;0.90;;;;;;;5.61;100.00;98095.33;109383;1252;65315;-76
2024/02/05 03:47:46;;;;;;;1.60;1.10;;;;;;;5.65;100.00;98100.19;109351;1252;58118;-77
2024/02/05 03:50:13;;;;;;;1.10;1.00;;;;;;;5.70;100.00;98104.27;109376;1254;58137;-78
2024/02/05 03:52:45;;;;;;;1.10;1.00;;;;;;;5.76;100.00;98100.05;109282;1254;65148;-77
2024/02/05 03:55:13;;;;;;;1.70;1.10;;;;;;;5.81;100.00;98093.89;109376;1253;61131;-77
2024/02/05 03:57:57;;;;;;;1.10;0.90;;;;;;;5.86;100.00;98090.79;109072;1253;64092;-76
2024/02/05 04:00:23;;;;;;;0.90;0.80;;;;;;;5.91;100.00;98080.77;109410;1252;58166;-78
2024/02/05 04:02:50;;;;;;;1.10;0.90;;;;;;;5.99;100.00;98074.67;109400;1253;58228;-78
2024/02/05 04:05:18;;;;;;;2.00;1.00;;;;;;;6.07;100.00;98069.77;109374;1252;66136;-76
2024/02/05 04:07:44;;;;;;;1.10;1.00;;;;;;;6.14;100.00;98076.73;109356;1254;61102;-77
2024/02/05 04:10:11;;;;;;;1.20;1.10;;;;;;;6.19;100.00;98072.67;109397;1252;64009;-76
2024/02/05 04:12:37;;;;;;;0.80;0.80;;;;;;;6.25;100.00;98067.17;109250;1252;58217;-77
2024/02/05 04:15:05;;;;;;;1.90;1.00;;;;;;;6.30;100.00;98059.27;109391;1252;58242;-77
2024/02/05 04:17:31;;;;;;;1.00;0.90;;;;;;;6.36;100.00;98049.70;109352;1252;66070;-76
2024/02/05 04:19:58;;;;;;;1.00;1.00;;;;;;;6.44;100.00;98052.40;109409;1253;60018;-77
2024/02/05 04:22:25;;;;;;;1.30;0.90;;;;;;;6.50;100.00;98044.06;109382;1253;65392;-76
2024/02/05 04:24:51;;;;;;;1.40;1.00;;;;;;;6.54;100.00;98042.73;109348;1253;58222;-77
2024/02/05 04:27:18;;;;;;;2.50;1.20;;;;;;;6.57;100.00;98031.91;109373;1252;58459;-76
2024/02/05 04:29:44;;;;;;;1.00;1.00;;;;;;;6.62;100.00;98029.83;109380;1252;66434;-77
2024/02/05 04:32:11;;;;;;;0.90;0.90;;;;;;;6.67;100.00;98024.76;109381;1253;61174;-77
2024/02/05 04:34:38;;;;;;;1.40;1.10;;;;;;;6.73;100.00;98025.44;109376;1252;65177;-77
2024/02/05 04:37:05;;;;;;;1.40;1.30;;;;;;;6.78;100.00;98027.34;109385;1252;58331;-77
2024/02/05 04:39:32;;;;;;;1.10;1.00;;;;;;;6.83;100.00;98033.39;109392;1252;58106;-76
2024/02/05 04:41:58;;;;;;;1.30;0.90;;;;;;;6.87;100.00;98030.80;109389;1253;66186;-76
2024/02/05 04:44:25;;;;;;;1.00;0.90;;;;;;;6.92;100.00;98028.57;109424;1252;61117;-76
2024/02/05 04:46:51;;;;;;;1.80;1.10;;;;;;;6.96;100.00;98026.69;109081;1252;65069;-77
2024/02/05 04:49:18;;;;;;;1.10;0.90;;;;;;;7.00;100.00;98018.65;109354;1252;58576;-76
2024/02/05 04:51:48;;;;;;;1.20;1.00;;;;;;;7.04;100.00;98019.59;109405;1252;58123;-77
2024/02/05 04:54:15;;;;;;;1.70;0.90;;;;;;;7.09;100.00;98028.97;109409;1252;66255;-78
2024/02/05 04:56:42;;;;;;;0.90;0.90;;;;;;;7.13;100.00;98029.45;109390;1252;61068;-76
2024/02/05 04:59:08;;;;;;;1.40;1.10;;;;;;;7.16;100.00;98026.77;109405;1252;63895;-77
2024/02/05 05:01:35;;;;;;;1.80;1.00;;;;;;;7.18;100.00;98025.15;109365;1252;58189;-77
2024/02/05 05:04:01;;;;;;;0.90;0.90;;;;;;;7.21;100.00;98011.73;109381;1252;58245;-77
2024/02/05 05:06:28;;;;;;;1.70;1.00;;;;;;;7.26;100.00;98023.96;109395;1252;66369;-76
2024/02/05 05:08:55;;;;;;;1.50;1.10;;;;;;;7.29;100.00;98017.36;109386;1253;61080;-76
2024/02/05 05:11:24;;;;;;;1.10;0.90;;;;;;;7.32;100.00;98029.39;109370;1252;64114;-77
2024/02/05 05:13:51;;;;;;;1.20;1.10;;;;;;;7.33;100.00;98029.27;109368;1252;58177;-76
2024/02/05 05:16:18;;;;;;;1.60;1.50;;;;;;;7.34;100.00;98027.59;109347;1252;58169;-78
2024/02/05 05:18:45;;;;;;;2.50;1.60;;;;;;;7.35;100.00;98022.92;109364;1252;66482;-77
2024/02/05 05:21:12;;;;;;;1.50;0.90;;;;;;;7.39;100.00;98023.60;109366;1253;61845;-77
2024/02/05 05:23:40;;;;;;;1.50;1.30;;;;;;;7.41;100.00;98018.69;109338;1252;65007;-78
2024/02/05 05:26:07;;;;;;;1.20;1.10;;;;;;;7.43;100.00;98016.02;109351;1252;58157;-76
2024/02/05 05:28:34;;;;;;;1.20;1.10;;;;;;;7.44;100.00;98009.02;109308;1252;58293;-78
2024/02/05 05:31:00;;;;;;;1.80;1.10;;;;;;;7.46;100.00;98010.20;109389;1253;65131;-76
2024/02/05 05:33:27;;;;;;;1.50;1.20;;;;;;;7.48;100.00;98010.72;109385;1252;59765;-77
2024/02/05 05:35:53;;;;;;;2.10;1.30;;;;;;;7.52;100.00;98010.98;109345;1253;64078;-78
2024/02/05 05:38:20;;;;;;;2.90;1.40;;;;;;;7.55;100.00;98006.21;109375;1252;58530;-78
2024/02/05 05:40:47;;;;;;;1.60;1.20;;;;;;;7.58;100.00;98006.90;109409;1252;58943;-77
2024/02/05 05:43:13;;;;;;;1.10;1.00;;;;;;;7.60;100.00;98015.21;109367;1252;65197;-76
2024/02/05 05:45:40;;;;;;;0.90;0.80;;;;;;;7.61;100.00;98015.46;109383;1252;60239;-78
2024/02/05 05:48:07;;;;;;;1.30;1.00;;;;;;;7.62;100.00;98016.63;109376;1252;65420;-76
2024/02/05 05:50:34;;;;;;;1.30;0.80;;;;;;;7.65;100.00;98016.80;109369;1252;58161;-77
2024/02/05 05:53:01;;;;;;;2.50;1.00;;;;;;;7.68;100.00;98019.25;109378;1252;58112;-77
2024/02/05 05:55:28;;;;;;;1.00;1.00;;;;;;;7.69;100.00;98017.05;109139;1252;66248;-77
2024/02/05 05:57:54;;;;;;;2.90;1.20;;;;;;;7.70;100.00;98020.49;109383;1252;60100;-77
2024/02/05 06:00:22;;;;;;;2.10;1.20;;;;;;;7.72;100.00;98017.23;109359;1252;65450;-77
2024/02/05 06:02:48;;;;;;;1.00;1.00;;;;;;;7.72;100.00;98013.28;109345;1252;58387;-77
2024/02/05 06:05:16;;;;;;;1.30;1.10;;;;;;;7.73;100.00;98008.98;109374;1252;58547;-77
2024/02/05 06:07:44;;;;;;;2.30;1.00;;;;;;;7.73;100.00;98007.42;109360;1252;65174;-76
2024/02/05 06:10:11;;;;;;;1.70;1.10;;;;;;;7.75;100.00;98011.70;109400;1252;69234;-78
2024/02/05 06:12:40;;;;;;;3.20;1.30;;;;;;;7.76;100.00;98010.37;109367;1252;64750;-74
2024/02/05 06:15:09;;;;;;;1.60;1.50;;;;;;;7.81;100.00;98018.14;109267;1252;58283;-76
2024/02/05 06:17:36;;;;;;;3.30;1.40;;;;;;;7.84;100.00;98025.20;109363;1252;58650;-76
2024/02/05 06:20:05;;;;;;;1.50;1.40;;;;;;;7.84;100.00;98026.55;109396;1252;66236;-76
2024/02/05 06:22:35;;;;;;;1.60;1.40;;;;;;;7.86;100.00;98029.09;109140;1252;61000;-76
2024/02/05 06:25:02;;;;;;;1.60;1.40;;;;;;;7.89;100.00;98026.22;109311;1252;65074;-77
2024/02/05 06:27:30;;;;;;;1.60;1.50;;;;;;;7.92;100.00;98032.22;109383;1252;58245;-76
2024/02/05 06:29:56;;;;;;;3.90;1.60;;;;;;;7.95;100.00;98029.17;109423;1252;58150;-76
2024/02/05 06:32:23;;;;;;;2.10;1.80;;;;;;;7.97;100.00;98035.56;109427;1252;65936;-76
2024/02/05 06:34:50;;;;;;;1.30;1.20;;;;;;;8.00;100.00;98039.23;109380;1252;59995;-76
2024/02/05 06:37:16;;;;;;;1.60;1.50;;;;;;;8.03;100.00;98044.15;109235;1253;65062;-75
2024/02/05 06:39:43;;;;;;;1.50;1.40;;;;;;;8.06;100.00;98046.60;109341;1252;58177;-76
2024/02/05 06:42:10;;;;;;;1.50;1.40;;;;;;;8.09;100.00;98049.21;109387;1252;58502;-76
2024/02/05 06:44:37;;;;;;;2.30;1.90;;;;;;;8.11;100.00;98048.89;109375;1252;74228;-76
2024/02/05 06:47:04;;;;;;;3.10;2.30;;;;;;;8.14;100.00;98047.45;109376;1252;60994;-77
2024/02/05 06:49:30;;;;;;;2.10;1.80;;;;;;;8.17;100.00;98052.17;109365;1252;65196;-77
2024/02/05 06:51:58;;;;;;;2.30;1.80;;;;;;;8.19;100.00;98053.81;109360;1252;58154;-76
2024/02/05 06:54:25;;;;;;;2.10;1.80;;;;;;;8.21;100.00;98059.48;109380;1252;58271;-76
2024/02/05 06:56:52;;;;;;;2.20;1.80;;;;;;;8.24;100.00;98068.35;109387;1252;66246;-76
2024/02/05 06:59:18;;;;;;;1.80;1.30;;;;;;;8.25;100.00;98062.39;109389;1252;61349;-75
2024/02/05 07:01:45;;;;;;;1.50;1.30;;;;;;;8.26;100.00;98062.48;109361;1252;64854;-76
2024/02/05 07:04:11;;;;;;;1.80;1.60;;;;;;;8.29;100.00;98066.00;109382;1252;58177;-75
2024/02/05 07:06:38;;;;;;;2.90;1.70;;;;;;;8.33;100.00;98066.39;109339;1252;58303;-76
2024/02/05 07:09:04;;;;;;;1.60;1.40;;;;;;;8.36;100.00;98069.68;109178;1255;66680;-77
2024/02/05 07:11:31;;;;;;;2.90;1.40;;;;;;;8.39;100.00;98067.95;109354;1253;60552;-75
2024/02/05 07:13:58;;;;;;;1.30;1.10;;;;;;;8.41;100.00;98078.39;109374;1252;65029;-85
2024/02/05 07:16:24;;;;;;;1.50;1.40;;;;;;;8.43;100.00;98076.36;109252;1252;58317;-85
2024/02/05 07:18:51;;;;;;;1.50;1.40;;;;;;;8.44;100.00;98072.36;109257;1252;58558;-83
2024/02/05 07:21:18;;;;;;;1.80;1.40;;;;;;;8.49;100.00;98079.13;109193;1252;65181;-83
2024/02/05 07:23:44;;;;;;;2.30;1.20;;;;;;;8.54;100.00;98082.80;109432;1252;61009;-81
2024/02/05 07:26:11;;;;;;;2.00;1.40;;;;;;;8.56;100.00;98086.55;109428;1252;64714;-82
2024/02/05 07:28:38;;;;;;;1.10;1.10;;;;;;;8.57;100.00;98094.02;109446;1252;58232;-81
2024/02/05 07:31:04;;;;;;;1.50;1.30;;;;;;;8.60;100.00;98097.77;109440;1253;58228;-82
2024/02/05 07:33:31;;;;;;;1.70;1.20;;;;;;;8.61;100.00;98093.96;109487;1252;66221;-80
2024/02/05 07:35:59;;;;;;;1.90;1.20;;;;;;;8.63;100.00;98102.33;109463;1252;61232;-80
2024/02/05 07:38:25;;;;;;;1.30;1.20;;;;;;;8.66;100.00;98100.53;109361;1252;65011;-81
2024/02/05 07:40:52;;;;;;;1.60;1.30;;;;;;;8.67;100.00;98101.29;109368;1253;58412;-81
2024/02/05 07:43:18;;;;;;;1.10;1.00;;;;;;;8.71;100.00;98112.55;109462;1252;58121;-82
2024/02/05 07:45:45;;;;;;;1.30;1.20;;;;;;;8.74;100.00;98118.16;109469;1252;65125;-80
2024/02/05 07:48:12;;;;;;;0.90;0.90;;;;;;;8.76;100.00;98121.69;109482;1252;60105;-80
2024/02/05 07:50:38;;;;;;;1.20;1.10;;;;;;;8.78;100.00;98116.56;109489;1252;64034;-79
2024/02/05 07:53:06;;;;;;;1.90;1.40;;;;;;;8.80;100.00;98116.27;109466;1252;58223;-79
2024/02/05 07:55:33;;;;;;;1.40;1.10;;;;;;;8.82;100.00;98118.44;109461;1252;58169;-81
2024/02/05 07:58:00;;;;;;;4.10;1.20;;;;;;;8.87;100.00;98120.23;109452;1252;66153;-82
2024/02/05 08:00:27;;;;;;;2.10;1.10;;;;;;;8.89;100.00;98123.08;109414;1253;60785;-80
2024/02/05 08:02:53;;;;;;;2.50;1.10;;;;;;;8.91;100.00;98122.92;109457;1252;65056;-80
2024/02/05 08:05:20;;;;;;;0.80;0.80;;;;;;;8.92;100.00;98132.39;109259;1253;58563;-82
2024/02/05 08:07:47;;;;;;;1.60;1.20;;;;;;;8.93;100.00;98139.73;109460;1252;58809;-81
2024/02/05 08:10:14;;;;;;;1.00;0.90;;;;;;;8.93;100.00;98140.81;109473;1252;66265;-82
2024/02/05 08:12:41;;;;;;;1.70;1.00;;;;;;;8.92;100.00;98144.14;109470;1252;61141;-81
2024/02/05 08:15:09;;;;;;;1.60;1.50;;;;;;;8.92;100.00;98153.86;109400;1252;65091;-81
2024/02/05 08:17:35;;;;;;;1.20;1.00;;;;;;;8.92;100.00;98162.87;109472;1252;58195;-81
2024/02/05 08:20:03;;;;;;;1.60;1.20;;;;;;;8.92;100.00;98161.30;109480;1252;59194;-81
2024/02/05 08:22:30;;;;;;;1.10;1.00;;;;;;;8.91;100.00;98160.16;109470;1252;64985;-81
2024/02/05 08:24:57;;;;;;;1.00;0.90;;;;;;;8.90;100.00;98156.81;109480;1252;58843;-80
2024/02/05 08:27:23;;;;;;;2.20;1.20;;;;;;;8.90;100.00;98163.38;109485;1252;63983;-80
2024/02/05 08:29:50;;;;;;;1.60;1.30;;;;;;;8.89;100.00;98167.35;109480;1252;58232;-82
2024/02/05 08:32:17;;;;;;;1.60;1.50;;;;;;;8.88;100.00;98161.55;109508;1252;58207;-82
2024/02/05 08:34:44;;;;;;;1.30;1.10;;;;;;;8.86;100.00;98164.95;109364;1253;66311;-80
2024/02/05 08:37:10;;;;;;;2.40;1.70;;;;;;;8.83;100.00;98163.16;109475;1252;61075;-81
2024/02/05 08:39:37;;;;;;;2.10;1.50;;;;;;;8.82;100.00;98161.14;109471;1252;63697;-80
2024/02/05 08:42:03;;;;;;;2.90;1.60;;;;;;;8.80;100.00;98169.42;109437;1252;58387;-80
2024/02/05 08:44:30;;;;;;;1.70;1.60;;;;;;;8.79;100.00;98172.30;109485;1252;58241;-81
2024/02/05 08:46:57;;;;;;;1.60;1.30;;;;;;;8.79;100.00;98172.85;109444;1252;66217;-81
2024/02/05 08:49:23;;;;;;;2.20;1.50;;;;;;;8.78;100.00;98174.02;109448;1252;61187;-82
2024/02/05 08:51:51;;;;;;;3.10;2.20;;;;;;;8.78;100.00;98179.70;109453;1252;65041;-80
2024/02/05 08:54:18;;;;;;;3.30;2.70;;;;;;;8.78;100.00;98175.05;109475;1252;58203;-81
2024/02/05 08:56:45;;;;;;;5.40;2.80;;;;;;;8.76;100.00;98175.19;109477;1252;58620;-80
2024/02/05 08:59:12;;;;;;;1.80;1.30;;;;;;;8.75;100.00;98174.33;109513;1252;65274;-81
2024/02/05 09:01:38;;;;;;;2.60;2.10;;;;;;;8.77;100.00;98174.77;109535;1252;61013;-82
2024/02/05 09:04:05;;;;;;;2.50;1.50;;;;;;;8.81;100.00;98182.14;109457;1252;64252;-81
2024/02/05 09:06:31;;;;;;;2.20;2.00;;;;;;;8.85;100.00;98184.34;109521;1252;58080;-81
2024/02/05 09:08:59;;;;;;;2.50;2.20;;;;;;;8.90;100.00;98185.70;109594;1252;58088;-81
2024/02/05 09:11:28;;;;;;;1.70;1.40;;;;;;;8.96;100.00;98191.77;109569;1252;65159;-81
2024/02/05 09:13:55;;;;;;;1.30;1.10;;;;;;;9.01;100.00;98192.19;109512;1251;61269;-80
2024/02/05 09:16:21;;;;;;;1.90;1.70;;;;;;;9.06;100.00;98190.03;109486;1252;63952;-83
2024/02/05 09:18:48;;;;;;;1.40;1.20;;;;;;;9.09;100.00;98186.46;109478;1252;58286;-80
2024/02/05 09:21:15;;;;;;;1.30;1.10;;;;;;;9.13;100.00;98191.81;109444;1252;58270;-81
2024/02/05 09:23:42;;;;;;;1.70;1.10;;;;;;;9.17;100.00;98203.02;109495;1252;65333;-80
2024/02/05 09:26:09;;;;;;;1.60;1.20;;;;;;;9.19;100.00;98205.71;109504;1252;60092;-82
2024/02/05 09:28:36;;;;;;;1.20;1.00;;;;;;;9.21;100.00;98214.75;109497;1252;65358;-80
2024/02/05 09:31:04;;;;;;;1.60;1.20;;;;;;;9.22;100.00;98211.67;109490;1252;58164;-82
2024/02/05 09:33:30;;;;;;;3.10;1.70;;;;;;;9.21;100.00;98209.80;109531;1252;58211;-81
2024/02/05 09:35:57;;;;;;;3.30;1.90;;;;;;;9.17;100.00;98223.36;109374;1252;63959;-80
2024/02/05 09:38:24;;;;;;;2.50;1.60;;;;;;;9.14;100.00;98222.95;109495;1252;60126;-81
2024/02/05 09:41:05;;;;;;;2.60;1.50;;;;;;;9.10;100.00;98223.06;109517;1252;64062;-81
2024/02/05 09:43:32;;;;;;;3.50;2.20;;;;;;;9.05;100.00;98229.12;109489;1252;58143;-81
2024/02/05 09:46:04;;;;;;;2.20;1.60;;;;;;;8.99;100.00;98229.16;109526;1252;58291;-81
2024/02/05 09:48:35;;;;;;;2.40;1.70;;;;;;;8.94;100.00;98234.33;109496;1252;66064;-80
2024/02/05 09:51:02;;;;;;;3.20;1.70;;;;;;;8.88;100.00;98232.77;109204;1253;61226;-80
2024/02/05 09:53:29;;;;;;;2.80;1.80;;;;;;;8.83;100.00;98231.57;109545;1252;65330;-81
2024/02/05 09:55:57;;;;;;;2.40;1.60;;;;;;;8.75;100.00;98236.70;109500;1252;58212;-80
2024/02/05 09:58:24;;;;;;;2.30;2.00;;;;;;;8.69;100.00;98240.73;109537;1252;58106;-81
2024/02/05 10:00:51;;;;;;;2.90;2.70;;;;;;;8.63;100.00;98244.33;109521;1252;65154;-81
2024/02/05 10:03:18;;;;;;;4.20;2.80;;;;;;;8.59;100.00;98239.48;109298;1253;61023;-80
2024/02/05 10:05:48;;;;;;;3.00;2.70;;;;;;;8.56;100.00;98238.27;109521;1252;64805;-81
2024/02/05 10:08:16;;;;;;;2.90;2.40;;;;;;;8.52;100.00;98228.44;109516;1252;58163;-79
2024/02/05 10:10:45;;;;;;;3.40;2.40;;;;;;;8.50;100.00;98227.39;109413;1251;58422;-81
2024/02/05 10:13:13;;;;;;;2.80;2.10;;;;;;;8.48;100.00;98225.06;109469;1252;65948;-80
2024/02/05 10:15:41;;;;;;;3.50;1.90;;;;;;;8.46;100.00;98222.50;109288;1253;61155;-81
2024/02/05 10:18:10;;;;;;;1.90;1.60;;;;;;;8.45;100.00;98219.55;109505;1252;63781;-79
2024/02/05 10:20:37;;;;;;;1.90;1.70;;;;;;;8.45;100.00;98220.30;109468;1252;58092;-82
2024/02/05 10:23:04;;;;;;;2.70;1.90;;;;;;;8.44;100.00;98224.21;109497;1252;58216;-80
2024/02/05 10:25:32;;;;;;;2.20;1.70;;;;;;;8.46;100.00;98223.07;109549;1251;65206;-81
2024/02/05 10:28:01;;;;;;;2.60;1.80;;;;;;;8.46;100.00;98207.48;109538;1252;60321;-80
2024/02/05 10:30:29;;;;;;;2.10;1.90;;;;;;;8.45;100.00;98211.95;109304;1253;65132;-80
2024/02/05 10:32:57;;;;;;;2.00;1.50;;;;;;;8.46;100.00;98227.30;109412;1253;58222;-81
2024/02/05 10:35:25;;;;;;;2.60;1.80;;;;;;;8.47;100.00;98224.40;109511;1253;58135;-81
2024/02/05 10:37:52;;;;;;;2.30;2.00;;;;;;;8.49;100.00;98231.67;109550;1251;66298;-81
2024/02/05 10:40:18;;;;;;;3.60;2.20;;;;;;;8.52;100.00;98225.05;109411;1252;61043;-81
2024/02/05 10:42:45;;;;;;;2.30;2.10;;;;;;;8.57;100.00;98224.74;109492;1252;65128;-81
2024/02/05 10:45:12;;;;;;;2.80;2.10;;;;;;;8.60;100.00;98231.45;109509;1252;58237;-80
2024/02/05 10:47:38;;;;;;;3.60;1.90;;;;;;;8.62;100.00;98235.17;109527;1251;58213;-80
2024/02/05 10:50:10;;;;;;;3.80;1.90;;;;;;;8.65;100.00;98234.98;109505;1252;66240;-82
2024/02/05 10:52:39;;;;;;;2.90;2.10;;;;;;;8.68;100.00;98231.90;109549;1252;61251;-80
2024/02/05 10:55:08;;;;;;;2.00;1.70;;;;;;;8.69;100.00;98237.88;109524;1252;64125;-81
2024/02/05 10:57:37;;;;;;;4.40;2.30;;;;;;;8.70;100.00;98239.20;109518;1252;58219;-81
2024/02/05 11:00:11;;;;;;;4.70;3.10;;;;;;;8.72;100.00;98228.94;109497;1251;58196;-79
2024/02/05 11:02:45;;;;;;;3.00;2.00;;;;;;;8.73;100.00;98221.13;109524;1251;66124;-80
2024/02/05 11:05:14;;;;;;;3.30;2.00;;;;;;;8.73;100.00;98218.29;109487;1252;60093;-80
2024/02/05 11:07:49;;;;;;;2.90;2.10;;;;;;;8.71;100.00;98224.27;109489;1252;65032;-79
2024/02/05 11:10:20;;;;;;;2.40;2.00;;;;;;;8.69;100.00;98226.90;109523;1252;58246;-80
2024/02/05 11:12:49;;;;;;;3.30;2.10;;;;;;;8.68;100.00;98221.48;109493;1253;58221;-81
2024/02/05 11:15:22;;;;;;;3.20;2.20;;;;;;;8.65;100.00;98228.95;109538;1252;65644;-80
2024/02/05 11:17:51;;;;;;;2.80;2.10;;;;;;;8.63;100.00;98233.68;109473;1253;60739;-81
2024/02/05 11:20:19;;;;;;;3.10;2.30;;;;;;;8.62;100.00;98235.17;109467;1252;65136;-80
2024/02/05 11:22:47;;;;;;;3.50;2.70;;;;;;;8.62;100.00;98239.98;109397;1252;58320;-80
2024/02/05 11:25:14;;;;;;;3.00;2.60;;;;;;;8.62;100.00;98242.83;109497;1252;58195;-81